sensor_id;sensor_type;location;lat;lon;timestamp;P1;durP1;ratioP1;P2;durP2;ratioP2
2604;SDS011;1312;50.298;8.520;2024-01-07T00:02:15;7.23;;;6.50;;
2604;SDS011;1312;50.298;8.520;2024-01-07T00:04:43;7.43;;;6.83;;
2604;SDS011;1312;50.298;8.520;2024-01-07T00:07:11;6.97;;;6.27;;
2604;SDS011;1312;50.298;8.520;2024-01-07T00:09:38;7.97;;;7.20;;
2604;SDS011;1312;50.298;8.520;2024-01-07T00:12:06;6.93;;;6.23;;
2604;SDS011;1312;50.298;8.520;2024-01-07T00:14:35;7.20;;;6.50;;
2604;SDS011;1312;50.298;8.520;2024-01-07T00:17:03;7.10;;;6.50;;
2604;SDS011;1312;50.298;8.520;2024-01-07T00:19:32;7.30;;;6.60;;
2604;SDS011;1312;50.298;8.520;2024-01-07T00:22:01;7.03;;;6.27;;
2604;SDS011;1312;50.298;8.520;2024-01-07T00:24:29;7.17;;;6.37;;
2604;SDS011;1312;50.298;8.520;2024-01-07T00:26:57;6.70;;;5.77;;
2604;SDS011;1312;50.298;8.520;2024-01-07T00:29:25;7.17;;;6.47;;
2604;SDS011;1312;50.298;8.520;2024-01-07T00:31:53;6.30;;;5.80;;
2604;SDS011;1312;50.298;8.520;2024-01-07T00:34:21;8.37;;;5.97;;
2604;SDS011;1312;50.298;8.520;2024-01-07T00:36:51;6.70;;;5.90;;
2604;SDS011;1312;50.298;8.520;2024-01-07T00:39:19;6.80;;;6.00;;
2604;SDS011;1312;50.298;8.520;2024-01-07T00:41:48;6.37;;;5.27;;
2604;SDS011;1312;50.298;8.520;2024-01-07T00:44:15;5.63;;;5.13;;
2604;SDS011;1312;50.298;8.520;2024-01-07T00:46:44;4.43;;;4.10;;
2604;SDS011;1312;50.298;8.520;2024-01-07T00:49:14;5.40;;;4.90;;
2604;SDS011;1312;50.298;8.520;2024-01-07T00:51:43;5.90;;;5.40;;
2604;SDS011;1312;50.298;8.520;2024-01-07T00:54:12;5.23;;;4.77;;
2604;SDS011;1312;50.298;8.520;2024-01-07T00:56:40;6.10;;;5.50;;
2604;SDS011;1312;50.298;8.520;2024-01-07T00:59:08;4.83;;;4.43;;
2604;SDS011;1312;50.298;8.520;2024-01-07T01:01:36;5.27;;;4.73;;
2604;SDS011;1312;50.298;8.520;2024-01-07T01:04:04;5.97;;;5.47;;
2604;SDS011;1312;50.298;8.520;2024-01-07T01:06:32;6.23;;;5.63;;
2604;SDS011;1312;50.298;8.520;2024-01-07T01:09:00;6.20;;;5.60;;
2604;SDS011;1312;50.298;8.520;2024-01-07T01:11:29;7.03;;;6.33;;
2604;SDS011;1312;50.298;8.520;2024-01-07T01:13:57;5.00;;;4.60;;
2604;SDS011;1312;50.298;8.520;2024-01-07T01:16:25;5.37;;;4.90;;
2604;SDS011;1312;50.298;8.520;2024-01-07T01:18:53;5.60;;;5.10;;
2604;SDS011;1312;50.298;8.520;2024-01-07T01:21:21;5.53;;;4.97;;
2604;SDS011;1312;50.298;8.520;2024-01-07T01:23:49;5.60;;;5.10;;
2604;SDS011;1312;50.298;8.520;2024-01-07T01:26:17;5.67;;;5.17;;
2604;SDS011;1312;50.298;8.520;2024-01-07T01:28:46;5.00;;;4.60;;
2604;SDS011;1312;50.298;8.520;2024-01-07T01:31:14;6.33;;;5.80;;
2604;SDS011;1312;50.298;8.520;2024-01-07T01:33:42;7.20;;;6.30;;
2604;SDS011;1312;50.298;8.520;2024-01-07T01:36:10;5.40;;;5.00;;
2604;SDS011;1312;50.298;8.520;2024-01-07T01:38:38;6.10;;;5.60;;
2604;SDS011;1312;50.298;8.520;2024-01-07T01:41:06;6.00;;;5.50;;
2604;SDS011;1312;50.298;8.520;2024-01-07T01:43:34;5.70;;;5.20;;
2604;SDS011;1312;50.298;8.520;2024-01-07T01:46:03;5.37;;;4.97;;
2604;SDS011;1312;50.298;8.520;2024-01-07T01:48:31;5.70;;;5.20;;
2604;SDS011;1312;50.298;8.520;2024-01-07T01:51:00;5.50;;;5.00;;
2604;SDS011;1312;50.298;8.520;2024-01-07T01:53:29;6.37;;;5.83;;
2604;SDS011;1312;50.298;8.520;2024-01-07T01:55:58;5.20;;;4.80;;
2604;SDS011;1312;50.298;8.520;2024-01-07T01:58:28;6.70;;;6.10;;
2604;SDS011;1312;50.298;8.520;2024-01-07T02:00:56;7.30;;;6.57;;
2604;SDS011;1312;50.298;8.520;2024-01-07T02:03:26;18.20;;;17.10;;
2604;SDS011;1312;50.298;8.520;2024-01-07T02:05:54;18.30;;;17.40;;
2604;SDS011;1312;50.298;8.520;2024-01-07T02:08:23;18.47;;;17.27;;
2604;SDS011;1312;50.298;8.520;2024-01-07T02:10:52;18.10;;;17.10;;
2604;SDS011;1312;50.298;8.520;2024-01-07T02:13:20;18.70;;;17.60;;
2604;SDS011;1312;50.298;8.520;2024-01-07T02:15:48;18.73;;;17.70;;
2604;SDS011;1312;50.298;8.520;2024-01-07T02:18:16;18.00;;;17.03;;
2604;SDS011;1312;50.298;8.520;2024-01-07T02:20:45;17.70;;;16.70;;
2604;SDS011;1312;50.298;8.520;2024-01-07T02:23:13;18.80;;;17.80;;
2604;SDS011;1312;50.298;8.520;2024-01-07T02:25:42;18.13;;;17.03;;
2604;SDS011;1312;50.298;8.520;2024-01-07T02:28:10;19.20;;;18.10;;
2604;SDS011;1312;50.298;8.520;2024-01-07T02:30:38;18.80;;;17.80;;
2604;SDS011;1312;50.298;8.520;2024-01-07T02:33:06;18.13;;;17.13;;
2604;SDS011;1312;50.298;8.520;2024-01-07T02:35:34;18.60;;;17.50;;
2604;SDS011;1312;50.298;8.520;2024-01-07T02:38:02;18.17;;;17.20;;
2604;SDS011;1312;50.298;8.520;2024-01-07T02:40:30;18.50;;;17.20;;
2604;SDS011;1312;50.298;8.520;2024-01-07T02:43:00;18.30;;;17.33;;
2604;SDS011;1312;50.298;8.520;2024-01-07T02:45:28;8.00;;;7.30;;
2604;SDS011;1312;50.298;8.520;2024-01-07T02:47:56;7.73;;;6.37;;
2604;SDS011;1312;50.298;8.520;2024-01-07T02:50:24;8.10;;;7.30;;
2604;SDS011;1312;50.298;8.520;2024-01-07T02:52:52;8.73;;;7.20;;
2604;SDS011;1312;50.298;8.520;2024-01-07T02:55:20;9.37;;;7.80;;
2604;SDS011;1312;50.298;8.520;2024-01-07T02:57:48;7.40;;;6.70;;
2604;SDS011;1312;50.298;8.520;2024-01-07T03:00:17;8.50;;;7.70;;
2604;SDS011;1312;50.298;8.520;2024-01-07T03:02:46;20.77;;;19.47;;
2604;SDS011;1312;50.298;8.520;2024-01-07T03:05:14;19.70;;;18.40;;
2604;SDS011;1312;50.298;8.520;2024-01-07T03:07:42;21.13;;;19.60;;
2604;SDS011;1312;50.298;8.520;2024-01-07T03:10:10;20.03;;;18.67;;
2604;SDS011;1312;50.298;8.520;2024-01-07T03:12:38;19.50;;;18.10;;
2604;SDS011;1312;50.298;8.520;2024-01-07T03:15:06;19.50;;;18.27;;
2604;SDS011;1312;50.298;8.520;2024-01-07T03:17:36;19.67;;;18.37;;
2604;SDS011;1312;50.298;8.520;2024-01-07T03:20:04;22.60;;;20.73;;
2604;SDS011;1312;50.298;8.520;2024-01-07T03:22:34;19.30;;;17.90;;
2604;SDS011;1312;50.298;8.520;2024-01-07T03:25:02;20.93;;;19.43;;
2604;SDS011;1312;50.298;8.520;2024-01-07T03:27:30;20.10;;;18.80;;
2604;SDS011;1312;50.298;8.520;2024-01-07T03:29:58;20.10;;;18.60;;
2604;SDS011;1312;50.298;8.520;2024-01-07T03:32:26;17.80;;;16.80;;
2604;SDS011;1312;50.298;8.520;2024-01-07T03:34:55;19.13;;;17.83;;
2604;SDS011;1312;50.298;8.520;2024-01-07T03:37:23;19.97;;;18.53;;
2604;SDS011;1312;50.298;8.520;2024-01-07T03:39:51;19.80;;;18.57;;
2604;SDS011;1312;50.298;8.520;2024-01-07T03:42:19;19.47;;;18.17;;
2604;SDS011;1312;50.298;8.520;2024-01-07T03:44:47;19.07;;;17.87;;
2604;SDS011;1312;50.298;8.520;2024-01-07T03:47:15;17.47;;;16.63;;
2604;SDS011;1312;50.298;8.520;2024-01-07T03:49:43;17.23;;;16.20;;
2604;SDS011;1312;50.298;8.520;2024-01-07T03:52:12;17.70;;;16.50;;
2604;SDS011;1312;50.298;8.520;2024-01-07T03:54:40;18.73;;;17.60;;
2604;SDS011;1312;50.298;8.520;2024-01-07T03:57:08;19.27;;;17.83;;
2604;SDS011;1312;50.298;8.520;2024-01-07T03:59:36;18.27;;;17.27;;
2604;SDS011;1312;50.298;8.520;2024-01-07T04:02:04;19.63;;;18.33;;
2604;SDS011;1312;50.298;8.520;2024-01-07T04:04:32;20.53;;;18.80;;
2604;SDS011;1312;50.298;8.520;2024-01-07T04:07:00;20.80;;;19.37;;
2604;SDS011;1312;50.298;8.520;2024-01-07T04:09:29;20.27;;;18.77;;
2604;SDS011;1312;50.298;8.520;2024-01-07T04:11:57;19.70;;;18.60;;
2604;SDS011;1312;50.298;8.520;2024-01-07T04:14:25;20.33;;;18.87;;
2604;SDS011;1312;50.298;8.520;2024-01-07T04:16:54;20.70;;;19.07;;
2604;SDS011;1312;50.298;8.520;2024-01-07T04:19:21;23.10;;;21.07;;
2604;SDS011;1312;50.298;8.520;2024-01-07T04:21:49;21.90;;;20.00;;
2604;SDS011;1312;50.298;8.520;2024-01-07T04:24:18;24.53;;;22.57;;
2604;SDS011;1312;50.298;8.520;2024-01-07T04:26:47;20.67;;;19.37;;
2604;SDS011;1312;50.298;8.520;2024-01-07T04:29:15;25.03;;;22.63;;
2604;SDS011;1312;50.298;8.520;2024-01-07T04:31:43;23.53;;;21.33;;
2604;SDS011;1312;50.298;8.520;2024-01-07T04:34:11;22.83;;;21.03;;
2604;SDS011;1312;50.298;8.520;2024-01-07T04:36:39;22.40;;;20.70;;
2604;SDS011;1312;50.298;8.520;2024-01-07T04:39:07;27.20;;;24.03;;
2604;SDS011;1312;50.298;8.520;2024-01-07T04:41:36;23.23;;;21.40;;
2604;SDS011;1312;50.298;8.520;2024-01-07T04:44:05;25.47;;;23.07;;
2604;SDS011;1312;50.298;8.520;2024-01-07T04:46:33;26.60;;;24.10;;
2604;SDS011;1312;50.298;8.520;2024-01-07T04:49:01;23.53;;;21.70;;
2604;SDS011;1312;50.298;8.520;2024-01-07T04:51:29;36.00;;;28.60;;
2604;SDS011;1312;50.298;8.520;2024-01-07T04:53:57;30.30;;;27.20;;
2604;SDS011;1312;50.298;8.520;2024-01-07T04:56:25;29.93;;;26.77;;
2604;SDS011;1312;50.298;8.520;2024-01-07T04:58:53;33.67;;;28.00;;
2604;SDS011;1312;50.298;8.520;2024-01-07T05:01:22;22.60;;;19.17;;
2604;SDS011;1312;50.298;8.520;2024-01-07T05:03:51;19.10;;;16.10;;
2604;SDS011;1312;50.298;8.520;2024-01-07T05:06:19;23.17;;;15.90;;
2604;SDS011;1312;50.298;8.520;2024-01-07T05:08:47;23.83;;;19.50;;
2604;SDS011;1312;50.298;8.520;2024-01-07T05:11:15;31.93;;;20.27;;
2604;SDS011;1312;50.298;8.520;2024-01-07T05:13:43;25.80;;;19.10;;
2604;SDS011;1312;50.298;8.520;2024-01-07T05:16:17;23.37;;;18.50;;
2604;SDS011;1312;50.298;8.520;2024-01-07T05:18:47;33.77;;;22.60;;
2604;SDS011;1312;50.298;8.520;2024-01-07T05:21:17;29.47;;;20.90;;
2604;SDS011;1312;50.298;8.520;2024-01-07T05:23:45;25.23;;;19.40;;
2604;SDS011;1312;50.298;8.520;2024-01-07T05:26:13;24.20;;;18.17;;
2604;SDS011;1312;50.298;8.520;2024-01-07T05:28:41;21.13;;;18.30;;
2604;SDS011;1312;50.298;8.520;2024-01-07T05:31:13;23.50;;;18.23;;
2604;SDS011;1312;50.298;8.520;2024-01-07T05:33:42;25.30;;;19.90;;
2604;SDS011;1312;50.298;8.520;2024-01-07T05:36:11;22.57;;;18.33;;
2604;SDS011;1312;50.298;8.520;2024-01-07T05:38:41;21.67;;;18.07;;
2604;SDS011;1312;50.298;8.520;2024-01-07T05:41:09;28.33;;;20.80;;
2604;SDS011;1312;50.298;8.520;2024-01-07T05:43:37;19.43;;;17.50;;
2604;SDS011;1312;50.298;8.520;2024-01-07T05:46:05;18.80;;;15.20;;
2604;SDS011;1312;50.298;8.520;2024-01-07T05:48:40;18.10;;;15.37;;
2604;SDS011;1312;50.298;8.520;2024-01-07T05:51:12;20.90;;;15.30;;
2604;SDS011;1312;50.298;8.520;2024-01-07T05:53:41;27.70;;;16.93;;
2604;SDS011;1312;50.298;8.520;2024-01-07T05:56:09;27.17;;;19.73;;
2604;SDS011;1312;50.298;8.520;2024-01-07T05:58:37;19.50;;;13.70;;
2604;SDS011;1312;50.298;8.520;2024-01-07T06:01:06;30.33;;;23.13;;
2604;SDS011;1312;50.298;8.520;2024-01-07T06:03:35;22.40;;;19.50;;
2604;SDS011;1312;50.298;8.520;2024-01-07T06:06:04;28.63;;;22.53;;
2604;SDS011;1312;50.298;8.520;2024-01-07T06:08:33;23.97;;;19.70;;
2604;SDS011;1312;50.298;8.520;2024-01-07T06:11:01;19.87;;;16.30;;
2604;SDS011;1312;50.298;8.520;2024-01-07T06:13:29;22.17;;;17.77;;
2604;SDS011;1312;50.298;8.520;2024-01-07T06:15:57;21.47;;;18.20;;
2604;SDS011;1312;50.298;8.520;2024-01-07T06:18:25;17.80;;;15.13;;
2604;SDS011;1312;50.298;8.520;2024-01-07T06:20:53;20.03;;;17.13;;
2604;SDS011;1312;50.298;8.520;2024-01-07T06:23:21;17.83;;;16.03;;
2604;SDS011;1312;50.298;8.520;2024-01-07T06:25:50;15.60;;;14.00;;
2604;SDS011;1312;50.298;8.520;2024-01-07T06:28:18;14.53;;;13.10;;
2604;SDS011;1312;50.298;8.520;2024-01-07T06:30:47;16.27;;;14.63;;
2604;SDS011;1312;50.298;8.520;2024-01-07T06:33:15;12.13;;;10.80;;
2604;SDS011;1312;50.298;8.520;2024-01-07T06:35:43;11.80;;;10.70;;
2604;SDS011;1312;50.298;8.520;2024-01-07T06:38:11;14.23;;;12.70;;
2604;SDS011;1312;50.298;8.520;2024-01-07T06:40:39;13.93;;;12.53;;
2604;SDS011;1312;50.298;8.520;2024-01-07T06:43:08;15.43;;;13.93;;
2604;SDS011;1312;50.298;8.520;2024-01-07T06:45:36;15.10;;;13.60;;
2604;SDS011;1312;50.298;8.520;2024-01-07T06:48:04;14.33;;;12.93;;
2604;SDS011;1312;50.298;8.520;2024-01-07T06:50:33;11.73;;;10.60;;
2604;SDS011;1312;50.298;8.520;2024-01-07T06:53:01;12.13;;;10.23;;
2604;SDS011;1312;50.298;8.520;2024-01-07T06:55:29;15.23;;;13.47;;
2604;SDS011;1312;50.298;8.520;2024-01-07T06:57:57;12.90;;;11.60;;
2604;SDS011;1312;50.298;8.520;2024-01-07T07:00:26;13.30;;;11.93;;
2604;SDS011;1312;50.298;8.520;2024-01-07T07:02:54;15.00;;;13.40;;
2604;SDS011;1312;50.298;8.520;2024-01-07T07:05:22;15.00;;;13.50;;
2604;SDS011;1312;50.298;8.520;2024-01-07T07:07:50;14.57;;;13.07;;
2604;SDS011;1312;50.298;8.520;2024-01-07T07:10:21;15.97;;;14.37;;
2604;SDS011;1312;50.298;8.520;2024-01-07T07:12:49;17.20;;;14.97;;
2604;SDS011;1312;50.298;8.520;2024-01-07T07:15:17;16.57;;;14.10;;
2604;SDS011;1312;50.298;8.520;2024-01-07T07:17:47;15.13;;;13.63;;
2604;SDS011;1312;50.298;8.520;2024-01-07T07:20:14;16.57;;;14.80;;
2604;SDS011;1312;50.298;8.520;2024-01-07T07:22:43;15.73;;;14.17;;
2604;SDS011;1312;50.298;8.520;2024-01-07T07:25:10;16.23;;;14.50;;
2604;SDS011;1312;50.298;8.520;2024-01-07T07:27:38;17.40;;;15.60;;
2604;SDS011;1312;50.298;8.520;2024-01-07T07:30:07;17.10;;;14.80;;
2604;SDS011;1312;50.298;8.520;2024-01-07T07:32:35;15.83;;;13.90;;
2604;SDS011;1312;50.298;8.520;2024-01-07T07:35:04;18.00;;;15.10;;
2604;SDS011;1312;50.298;8.520;2024-01-07T07:37:33;17.03;;;15.23;;
2604;SDS011;1312;50.298;8.520;2024-01-07T07:40:01;16.87;;;15.17;;
2604;SDS011;1312;50.298;8.520;2024-01-07T07:42:30;17.00;;;15.30;;
2604;SDS011;1312;50.298;8.520;2024-01-07T07:44:58;15.80;;;14.20;;
2604;SDS011;1312;50.298;8.520;2024-01-07T07:47:26;18.40;;;14.60;;
2604;SDS011;1312;50.298;8.520;2024-01-07T07:49:54;17.53;;;13.70;;
2604;SDS011;1312;50.298;8.520;2024-01-07T07:52:24;12.47;;;11.33;;
2604;SDS011;1312;50.298;8.520;2024-01-07T07:54:52;14.60;;;13.20;;
2604;SDS011;1312;50.298;8.520;2024-01-07T07:57:21;15.80;;;14.20;;
2604;SDS011;1312;50.298;8.520;2024-01-07T07:59:51;18.30;;;16.03;;
2604;SDS011;1312;50.298;8.520;2024-01-07T08:02:19;16.00;;;14.40;;
2604;SDS011;1312;50.298;8.520;2024-01-07T08:04:48;20.03;;;15.97;;
2604;SDS011;1312;50.298;8.520;2024-01-07T08:07:16;17.27;;;15.60;;
2604;SDS011;1312;50.298;8.520;2024-01-07T08:09:46;20.23;;;18.00;;
2604;SDS011;1312;50.298;8.520;2024-01-07T08:12:14;20.70;;;16.67;;
2604;SDS011;1312;50.298;8.520;2024-01-07T08:14:42;21.57;;;17.67;;
2604;SDS011;1312;50.298;8.520;2024-01-07T08:17:10;22.87;;;18.90;;
2604;SDS011;1312;50.298;8.520;2024-01-07T08:19:37;19.93;;;17.80;;
2604;SDS011;1312;50.298;8.520;2024-01-07T08:22:05;22.07;;;18.50;;
2604;SDS011;1312;50.298;8.520;2024-01-07T08:24:35;24.80;;;18.90;;
2604;SDS011;1312;50.298;8.520;2024-01-07T08:27:05;22.93;;;18.83;;
2604;SDS011;1312;50.298;8.520;2024-01-07T08:29:33;26.60;;;18.90;;
2604;SDS011;1312;50.298;8.520;2024-01-07T08:32:01;23.30;;;17.00;;
2604;SDS011;1312;50.298;8.520;2024-01-07T08:34:29;23.17;;;17.00;;
2604;SDS011;1312;50.298;8.520;2024-01-07T08:36:57;22.20;;;16.63;;
2604;SDS011;1312;50.298;8.520;2024-01-07T08:39:25;22.03;;;16.20;;
2604;SDS011;1312;50.298;8.520;2024-01-07T08:41:55;21.50;;;14.60;;
2604;SDS011;1312;50.298;8.520;2024-01-07T08:44:24;21.57;;;17.10;;
2604;SDS011;1312;50.298;8.520;2024-01-07T08:46:52;22.63;;;17.33;;
2604;SDS011;1312;50.298;8.520;2024-01-07T08:49:20;21.30;;;16.97;;
2604;SDS011;1312;50.298;8.520;2024-01-07T08:51:48;17.80;;;15.03;;
2604;SDS011;1312;50.298;8.520;2024-01-07T08:54:16;19.67;;;17.57;;
2604;SDS011;1312;50.298;8.520;2024-01-07T08:56:44;17.80;;;15.93;;
2604;SDS011;1312;50.298;8.520;2024-01-07T08:59:12;17.10;;;13.73;;
2604;SDS011;1312;50.298;8.520;2024-01-07T09:01:41;18.30;;;14.73;;
2604;SDS011;1312;50.298;8.520;2024-01-07T09:04:09;16.43;;;14.00;;
2604;SDS011;1312;50.298;8.520;2024-01-07T09:06:37;16.73;;;14.23;;
2604;SDS011;1312;50.298;8.520;2024-01-07T09:09:06;16.50;;;13.37;;
2604;SDS011;1312;50.298;8.520;2024-01-07T09:11:34;16.37;;;13.57;;
2604;SDS011;1312;50.298;8.520;2024-01-07T09:14:03;13.73;;;11.23;;
2604;SDS011;1312;50.298;8.520;2024-01-07T09:16:31;15.47;;;13.20;;
2604;SDS011;1312;50.298;8.520;2024-01-07T09:19:00;17.10;;;12.83;;
2604;SDS011;1312;50.298;8.520;2024-01-07T09:21:29;18.73;;;14.17;;
2604;SDS011;1312;50.298;8.520;2024-01-07T09:23:57;18.13;;;14.43;;
2604;SDS011;1312;50.298;8.520;2024-01-07T09:26:25;16.93;;;13.60;;
2604;SDS011;1312;50.298;8.520;2024-01-07T09:28:54;16.20;;;12.97;;
2604;SDS011;1312;50.298;8.520;2024-01-07T09:31:22;17.53;;;14.80;;
2604;SDS011;1312;50.298;8.520;2024-01-07T09:33:50;16.03;;;13.23;;
2604;SDS011;1312;50.298;8.520;2024-01-07T09:36:20;19.10;;;15.80;;
2604;SDS011;1312;50.298;8.520;2024-01-07T09:38:50;15.63;;;13.43;;
2604;SDS011;1312;50.298;8.520;2024-01-07T09:41:20;19.90;;;15.97;;
2604;SDS011;1312;50.298;8.520;2024-01-07T09:43:48;17.90;;;14.10;;
2604;SDS011;1312;50.298;8.520;2024-01-07T09:46:16;15.37;;;11.20;;
2604;SDS011;1312;50.298;8.520;2024-01-07T09:48:44;15.47;;;12.70;;
2604;SDS011;1312;50.298;8.520;2024-01-07T09:51:12;11.80;;;9.80;;
2604;SDS011;1312;50.298;8.520;2024-01-07T09:53:44;11.87;;;10.67;;
2604;SDS011;1312;50.298;8.520;2024-01-07T09:56:16;14.23;;;11.73;;
2604;SDS011;1312;50.298;8.520;2024-01-07T09:58:47;13.17;;;11.87;;
2604;SDS011;1312;50.298;8.520;2024-01-07T10:01:16;12.50;;;11.20;;
2604;SDS011;1312;50.298;8.520;2024-01-07T10:03:45;12.87;;;11.43;;
2604;SDS011;1312;50.298;8.520;2024-01-07T10:06:13;14.20;;;10.77;;
2604;SDS011;1312;50.298;8.520;2024-01-07T10:08:47;12.53;;;11.20;;
2604;SDS011;1312;50.298;8.520;2024-01-07T10:11:15;13.13;;;11.83;;
2604;SDS011;1312;50.298;8.520;2024-01-07T10:13:44;13.50;;;12.13;;
2604;SDS011;1312;50.298;8.520;2024-01-07T10:16:13;12.80;;;11.60;;
2604;SDS011;1312;50.298;8.520;2024-01-07T10:18:42;12.67;;;11.37;;
2604;SDS011;1312;50.298;8.520;2024-01-07T10:21:10;13.60;;;12.20;;
2604;SDS011;1312;50.298;8.520;2024-01-07T10:23:38;14.03;;;12.63;;
2604;SDS011;1312;50.298;8.520;2024-01-07T10:26:07;12.30;;;11.00;;
2604;SDS011;1312;50.298;8.520;2024-01-07T10:28:48;11.43;;;10.20;;
2604;SDS011;1312;50.298;8.520;2024-01-07T10:31:16;13.00;;;11.10;;
2604;SDS011;1312;50.298;8.520;2024-01-07T10:33:44;14.10;;;11.80;;
2604;SDS011;1312;50.298;8.520;2024-01-07T10:36:13;14.57;;;13.03;;
2604;SDS011;1312;50.298;8.520;2024-01-07T10:38:41;17.57;;;14.63;;
2604;SDS011;1312;50.298;8.520;2024-01-07T10:41:13;13.20;;;10.70;;
2604;SDS011;1312;50.298;8.520;2024-01-07T10:43:45;15.70;;;13.37;;
2604;SDS011;1312;50.298;8.520;2024-01-07T10:46:14;14.20;;;12.37;;
2604;SDS011;1312;50.298;8.520;2024-01-07T10:48:46;13.37;;;11.73;;
2604;SDS011;1312;50.298;8.520;2024-01-07T10:51:21;13.00;;;11.80;;
2604;SDS011;1312;50.298;8.520;2024-01-07T10:53:51;10.53;;;9.53;;
2604;SDS011;1312;50.298;8.520;2024-01-07T10:56:22;11.70;;;10.50;;
2604;SDS011;1312;50.298;8.520;2024-01-07T10:58:52;12.83;;;11.30;;
2604;SDS011;1312;50.298;8.520;2024-01-07T11:01:20;13.97;;;12.23;;
2604;SDS011;1312;50.298;8.520;2024-01-07T11:03:51;15.27;;;13.03;;
2604;SDS011;1312;50.298;8.520;2024-01-07T11:06:27;12.57;;;11.37;;
2604;SDS011;1312;50.298;8.520;2024-01-07T11:09:02;13.70;;;12.30;;
2604;SDS011;1312;50.298;8.520;2024-01-07T11:11:40;12.30;;;11.10;;
2604;SDS011;1312;50.298;8.520;2024-01-07T11:17:02;13.27;;;10.03;;
2604;SDS011;1312;50.298;8.520;2024-01-07T11:19:30;13.83;;;11.07;;
2604;SDS011;1312;50.298;8.520;2024-01-07T11:24:50;12.80;;;10.10;;
2604;SDS011;1312;50.298;8.520;2024-01-07T11:27:20;11.77;;;9.87;;
2604;SDS011;1312;50.298;8.520;2024-01-07T11:29:55;12.00;;;10.00;;
2604;SDS011;1312;50.298;8.520;2024-01-07T11:32:24;12.07;;;10.87;;
2604;SDS011;1312;50.298;8.520;2024-01-07T11:34:55;12.97;;;11.10;;
2604;SDS011;1312;50.298;8.520;2024-01-07T11:37:26;13.30;;;11.90;;
2604;SDS011;1312;50.298;8.520;2024-01-07T11:39:55;13.20;;;11.20;;
2604;SDS011;1312;50.298;8.520;2024-01-07T11:42:25;11.67;;;9.70;;
2604;SDS011;1312;50.298;8.520;2024-01-07T11:44:54;14.23;;;11.80;;
2604;SDS011;1312;50.298;8.520;2024-01-07T11:47:23;12.43;;;11.23;;
2604;SDS011;1312;50.298;8.520;2024-01-07T11:49:52;15.60;;;11.97;;
2604;SDS011;1312;50.298;8.520;2024-01-07T11:52:21;13.67;;;12.17;;
2604;SDS011;1312;50.298;8.520;2024-01-07T11:54:49;13.03;;;11.87;;
2604;SDS011;1312;50.298;8.520;2024-01-07T11:57:17;13.70;;;12.30;;
2604;SDS011;1312;50.298;8.520;2024-01-07T11:59:47;15.87;;;13.27;;
2604;SDS011;1312;50.298;8.520;2024-01-07T12:02:15;23.80;;;21.90;;
2604;SDS011;1312;50.298;8.520;2024-01-07T12:04:43;21.10;;;19.30;;
2604;SDS011;1312;50.298;8.520;2024-01-07T12:12:48;14.80;;;12.60;;
2604;SDS011;1312;50.298;8.520;2024-01-07T12:15:19;14.70;;;13.07;;
2604;SDS011;1312;50.298;8.520;2024-01-07T12:17:54;16.27;;;14.50;;
2604;SDS011;1312;50.298;8.520;2024-01-07T12:20:24;15.20;;;13.00;;
2604;SDS011;1312;50.298;8.520;2024-01-07T12:22:55;13.80;;;10.30;;
2604;SDS011;1312;50.298;8.520;2024-01-07T12:25:23;13.80;;;11.37;;
2604;SDS011;1312;50.298;8.520;2024-01-07T12:27:51;12.83;;;9.57;;
2604;SDS011;1312;50.298;8.520;2024-01-07T12:30:23;11.93;;;10.07;;
2604;SDS011;1312;50.298;8.520;2024-01-07T12:32:52;11.63;;;10.43;;
2604;SDS011;1312;50.298;8.520;2024-01-07T12:35:20;12.40;;;10.80;;
2604;SDS011;1312;50.298;8.520;2024-01-07T12:37:48;12.80;;;9.97;;
2604;SDS011;1312;50.298;8.520;2024-01-07T12:40:16;12.67;;;11.37;;
2604;SDS011;1312;50.298;8.520;2024-01-07T12:42:46;12.00;;;9.53;;
2604;SDS011;1312;50.298;8.520;2024-01-07T12:45:15;10.50;;;9.23;;
2604;SDS011;1312;50.298;8.520;2024-01-07T12:47:45;10.77;;;9.77;;
2604;SDS011;1312;50.298;8.520;2024-01-07T12:50:13;11.90;;;10.60;;
2604;SDS011;1312;50.298;8.520;2024-01-07T12:52:41;10.83;;;9.73;;
2604;SDS011;1312;50.298;8.520;2024-01-07T12:55:10;13.30;;;11.70;;
2604;SDS011;1312;50.298;8.520;2024-01-07T12:57:38;12.27;;;10.30;;
2604;SDS011;1312;50.298;8.520;2024-01-07T13:00:06;15.27;;;11.47;;
2604;SDS011;1312;50.298;8.520;2024-01-07T13:02:35;18.20;;;16.70;;
2604;SDS011;1312;50.298;8.520;2024-01-07T13:05:05;21.10;;;18.70;;
2604;SDS011;1312;50.298;8.520;2024-01-07T13:07:34;19.73;;;18.13;;
2604;SDS011;1312;50.298;8.520;2024-01-07T13:10:02;20.93;;;16.40;;
2604;SDS011;1312;50.298;8.520;2024-01-07T13:12:31;20.57;;;19.20;;
2604;SDS011;1312;50.298;8.520;2024-01-07T13:15:12;24.30;;;22.70;;
2604;SDS011;1312;50.298;8.520;2024-01-07T13:17:43;23.87;;;22.10;;
2604;SDS011;1312;50.298;8.520;2024-01-07T13:20:13;19.73;;;18.03;;
2604;SDS011;1312;50.298;8.520;2024-01-07T13:22:41;18.87;;;17.20;;
2604;SDS011;1312;50.298;8.520;2024-01-07T13:25:09;14.10;;;13.20;;
2604;SDS011;1312;50.298;8.520;2024-01-07T13:27:37;19.10;;;17.57;;
2604;SDS011;1312;50.298;8.520;2024-01-07T13:30:06;19.60;;;17.67;;
2604;SDS011;1312;50.298;8.520;2024-01-07T13:32:34;16.40;;;15.20;;
2604;SDS011;1312;50.298;8.520;2024-01-07T13:35:04;17.80;;;16.37;;
2604;SDS011;1312;50.298;8.520;2024-01-07T13:37:38;17.13;;;15.70;;
2604;SDS011;1312;50.298;8.520;2024-01-07T13:40:08;17.10;;;15.80;;
2604;SDS011;1312;50.298;8.520;2024-01-07T13:42:37;16.77;;;15.47;;
2604;SDS011;1312;50.298;8.520;2024-01-07T13:45:05;16.30;;;15.30;;
2604;SDS011;1312;50.298;8.520;2024-01-07T13:47:33;16.47;;;15.37;;
2604;SDS011;1312;50.298;8.520;2024-01-07T13:50:02;17.23;;;15.93;;
2604;SDS011;1312;50.298;8.520;2024-01-07T13:52:30;17.17;;;16.03;;
2604;SDS011;1312;50.298;8.520;2024-01-07T13:55:00;15.30;;;14.40;;
2604;SDS011;1312;50.298;8.520;2024-01-07T13:57:29;15.20;;;14.20;;
2604;SDS011;1312;50.298;8.520;2024-01-07T13:59:57;15.37;;;14.27;;
2604;SDS011;1312;50.298;8.520;2024-01-07T14:02:25;15.50;;;14.40;;
2604;SDS011;1312;50.298;8.520;2024-01-07T14:04:53;15.90;;;14.80;;
2604;SDS011;1312;50.298;8.520;2024-01-07T14:07:21;8.30;;;7.00;;
2604;SDS011;1312;50.298;8.520;2024-01-07T14:09:50;15.17;;;14.20;;
2604;SDS011;1312;50.298;8.520;2024-01-07T14:12:20;14.37;;;13.43;;
2604;SDS011;1312;50.298;8.520;2024-01-07T14:14:48;14.60;;;13.50;;
2604;SDS011;1312;50.298;8.520;2024-01-07T14:17:15;14.17;;;13.27;;
2604;SDS011;1312;50.298;8.520;2024-01-07T14:19:44;7.83;;;7.23;;
2604;SDS011;1312;50.298;8.520;2024-01-07T14:22:13;6.00;;;5.40;;
2604;SDS011;1312;50.298;8.520;2024-01-07T14:24:42;6.97;;;6.27;;
2604;SDS011;1312;50.298;8.520;2024-01-07T14:27:09;6.50;;;5.90;;
2604;SDS011;1312;50.298;8.520;2024-01-07T14:29:40;7.50;;;6.90;;
2604;SDS011;1312;50.298;8.520;2024-01-07T14:32:08;6.27;;;5.83;;
2604;SDS011;1312;50.298;8.520;2024-01-07T14:34:37;5.83;;;5.33;;
2604;SDS011;1312;50.298;8.520;2024-01-07T14:37:07;6.77;;;5.83;;
2604;SDS011;1312;50.298;8.520;2024-01-07T14:39:36;4.80;;;4.50;;
2604;SDS011;1312;50.298;8.520;2024-01-07T14:42:05;6.20;;;5.70;;
2604;SDS011;1312;50.298;8.520;2024-01-07T14:44:33;6.50;;;6.00;;
2604;SDS011;1312;50.298;8.520;2024-01-07T14:47:14;5.90;;;5.50;;
2604;SDS011;1312;50.298;8.520;2024-01-07T14:49:42;5.27;;;4.87;;
2604;SDS011;1312;50.298;8.520;2024-01-07T14:52:10;6.20;;;4.63;;
2604;SDS011;1312;50.298;8.520;2024-01-07T14:54:38;5.23;;;4.87;;
2604;SDS011;1312;50.298;8.520;2024-01-07T14:57:06;5.13;;;4.83;;
2604;SDS011;1312;50.298;8.520;2024-01-07T14:59:35;5.90;;;5.47;;
2604;SDS011;1312;50.298;8.520;2024-01-07T15:02:03;8.20;;;7.73;;
2604;SDS011;1312;50.298;8.520;2024-01-07T15:04:34;8.70;;;8.20;;
2604;SDS011;1312;50.298;8.520;2024-01-07T15:07:02;10.53;;;9.83;;
2604;SDS011;1312;50.298;8.520;2024-01-07T15:09:30;7.80;;;7.40;;
2604;SDS011;1312;50.298;8.520;2024-01-07T15:11:58;7.97;;;7.57;;
2604;SDS011;1312;50.298;8.520;2024-01-07T15:14:27;7.97;;;7.53;;